Time;durP1;ratioP1;P1;durP2;ratioP2;P2;SDS_P1;SDS_P2;PMS_P1;PMS_P2;Temp;Humidity;BMP_temperature;BMP_pressure;BME280_temperature;BME280_humidity;BME280_pressure;Samples;Min_cycle;Max_cycle;Signal;HPM_P1;HPM_P2
2021/09/09 00:02:07;;;;;;;;;;;17.00;99.90;;;;;;1965583;73;20143;-68
2021/09/09 00:04:34;;;;;;;;;;;17.00;99.90;;;;;;1968655;72;20119;-68
2021/09/09 00:07:01;;;;;;;;;;;17.00;99.90;;;;;;1974501;73;20166;-68
2021/09/09 00:09:28;;;;;;;;;;;16.90;99.90;;;;;;1961654;72;20181;-68
2021/09/09 00:11:55;;;;;;;;;;;16.90;99.90;;;;;;1968733;73;20474;-68
2021/09/09 00:14:22;;;;;;;;;;;16.90;99.90;;;;;;1965197;71;20294;-68
2021/09/09 00:16:49;;;;;;;;;;;16.90;99.90;;;;;;1974713;73;20194;-69
2021/09/09 00:19:16;;;;;;;;;;;16.90;99.90;;;;;;1980537;71;20417;-69
2021/09/09 00:21:43;;;;;;;;;;;16.90;99.90;;;;;;1974287;73;20110;-68
2021/09/09 00:24:09;;;;;;;;;;;16.90;99.90;;;;;;1972086;72;21088;-69
2021/09/09 00:26:36;;;;;;;;;;;16.90;99.90;;;;;;1945020;71;20151;-68
2021/09/09 00:29:03;;;;;;;;;;;17.00;99.90;;;;;;1965234;72;20707;-68
2021/09/09 00:31:30;;;;;;;;;;;16.80;99.90;;;;;;1968197;71;20412;-68
2021/09/09 00:33:58;;;;;;;;;;;16.80;99.90;;;;;;1969718;71;20170;-68
2021/09/09 00:36:25;;;;;;;;;;;16.70;99.90;;;;;;1961121;71;20120;-69
2021/09/09 00:38:51;;;;;;;;;;;16.70;99.90;;;;;;1961485;73;20201;-68
2021/09/09 00:41:18;;;;;;;;;;;16.60;99.90;;;;;;1966203;71;20530;-68
2021/09/09 00:43:45;;;;;;;;;;;16.60;99.90;;;;;;1974489;71;20123;-68
2021/09/09 00:46:12;;;;;;;;;;;16.60;99.90;;;;;;1969839;72;20181;-68
2021/09/09 00:48:39;;;;;;;;;;;16.60;99.90;;;;;;1964797;71;20127;-68
2021/09/09 00:51:05;;;;;;;;;;;16.60;99.90;;;;;;1973927;72;20154;-68
2021/09/09 00:53:34;;;;;;;;;;;16.70;99.90;;;;;;1973566;71;20173;-69
2021/09/09 00:56:00;;;;;;;;;;;16.60;99.90;;;;;;1961356;73;20470;-69
2021/09/09 00:58:27;;;;;;;;;;;16.60;99.90;;;;;;1969703;72;20192;-69
2021/09/09 01:00:54;;;;;;;;;;;16.60;99.90;;;;;;1962762;71;20420;-69
2021/09/09 01:03:24;;;;;;;;;;;16.50;99.90;;;;;;1973987;71;20205;-69
2021/09/09 01:05:50;;;;;;;;;;;16.40;99.90;;;;;;1973724;72;20239;-69
2021/09/09 01:08:17;;;;;;;;;;;16.50;99.90;;;;;;1971600;71;20128;-69
2021/09/09 01:10:44;;;;;;;;;;;16.50;99.90;;;;;;1961995;73;20170;-69
2021/09/09 01:13:11;;;;;;;;;;;16.60;99.90;;;;;;1973771;71;20178;-68
2021/09/09 01:15:41;;;;;;;;;;;16.60;99.90;;;;;;1970662;71;20455;-69
2021/09/09 01:18:12;;;;;;;;;;;16.70;99.90;;;;;;1973097;71;20266;-69
2021/09/09 01:20:39;;;;;;;;;;;16.50;99.90;;;;;;1962945;72;20167;-68
2021/09/09 01:23:07;;;;;;;;;;;16.50;99.90;;;;;;1972736;72;20162;-69
2021/09/09 01:25:34;;;;;;;;;;;16.30;99.90;;;;;;1979435;72;20154;-69
2021/09/09 01:28:01;;;;;;;;;;;16.40;99.90;;;;;;1966411;71;20174;-68
2021/09/09 01:30:28;;;;;;;;;;;16.50;99.90;;;;;;1973920;72;20224;-68
2021/09/09 01:32:55;;;;;;;;;;;16.60;99.90;;;;;;1967130;72;20205;-69
2021/09/09 01:35:22;;;;;;;;;;;16.60;99.90;;;;;;1961636;71;20108;-69
2021/09/09 01:37:48;;;;;;;;;;;16.60;99.90;;;;;;1962124;71;20128;-69
2021/09/09 01:40:15;;;;;;;;;;;16.50;99.90;;;;;;1972304;71;20158;-69
2021/09/09 01:42:42;;;;;;;;;;;16.50;99.90;;;;;;1961433;71;20147;-69
2021/09/09 01:45:09;;;;;;;;;;;16.50;99.90;;;;;;1972561;71;20213;-69
2021/09/09 01:47:36;;;;;;;;;;;16.40;99.90;;;;;;1973897;72;20115;-69
2021/09/09 01:50:03;;;;;;;;;;;16.50;99.90;;;;;;1964620;71;20153;-69
2021/09/09 01:52:30;;;;;;;;;;;16.50;99.90;;;;;;1961417;72;20502;-69
2021/09/09 01:54:56;;;;;;;;;;;16.50;99.90;;;;;;1967981;71;20119;-69
2021/09/09 01:57:23;;;;;;;;;;;16.50;99.90;;;;;;1963742;73;20292;-69
2021/09/09 01:59:50;;;;;;;;;;;16.40;99.90;;;;;;1961897;71;20163;-69
2021/09/09 02:02:17;;;;;;;;;;;16.50;99.90;;;;;;1961310;73;20146;-69
2021/09/09 02:04:44;;;;;;;;;;;16.40;99.90;;;;;;1971480;71;20455;-69
2021/09/09 02:07:11;;;;;;;;;;;16.30;99.90;;;;;;1965980;72;20139;-69
2021/09/09 02:09:37;;;;;;;;;;;16.30;99.90;;;;;;1972846;71;20166;-69
2021/09/09 02:12:04;;;;;;;;;;;16.30;99.90;;;;;;1973234;71;20501;-69
2021/09/09 02:14:31;;;;;;;;;;;16.30;99.90;;;;;;1974032;71;20123;-69
2021/09/09 02:16:58;;;;;;;;;;;16.40;99.90;;;;;;1973326;71;20158;-69
2021/09/09 02:19:25;;;;;;;;;;;16.30;99.90;;;;;;1965134;71;20170;-69
2021/09/09 02:21:51;;;;;;;;;;;16.40;99.90;;;;;;1961578;72;20154;-69
2021/09/09 02:24:18;;;;;;;;;;;16.30;99.90;;;;;;1960489;71;20178;-69
2021/09/09 02:26:45;;;;;;;;;;;16.30;99.90;;;;;;1972972;71;20131;-69
2021/09/09 02:29:12;;;;;;;;;;;16.40;99.90;;;;;;1964625;71;20202;-69
2021/09/09 02:31:39;;;;;;;;;;;16.30;99.90;;;;;;1969131;71;20122;-69
2021/09/09 02:34:06;;;;;;;;;;;16.30;99.90;;;;;;1974842;73;20107;-69
2021/09/09 02:36:32;;;;;;;;;;;16.30;99.90;;;;;;1969068;71;20720;-68
2021/09/09 02:39:00;;;;;;;;;;;16.30;99.90;;;;;;1961179;72;20124;-69
2021/09/09 02:41:27;;;;;;;;;;;16.30;99.90;;;;;;1957534;71;20176;-69
2021/09/09 02:43:53;;;;;;;;;;;16.20;99.90;;;;;;1940254;74;20410;-68
2021/09/09 02:46:20;;;;;;;;;;;16.30;99.90;;;;;;1961583;71;20248;-69
2021/09/09 02:48:47;;;;;;;;;;;16.30;99.90;;;;;;1971012;71;20158;-69
2021/09/09 02:51:14;;;;;;;;;;;16.40;99.90;;;;;;1964004;71;20166;-69
2021/09/09 02:53:41;;;;;;;;;;;16.30;99.90;;;;;;1961228;71;20167;-69
2021/09/09 02:56:07;;;;;;;;;;;16.30;99.90;;;;;;1969064;71;20173;-69
2021/09/09 02:58:34;;;;;;;;;;;16.20;99.90;;;;;;1974821;73;20154;-69
2021/09/09 03:01:01;;;;;;;;;;;16.20;99.90;;;;;;1962746;71;20147;-69
2021/09/09 03:03:28;;;;;;;;;;;16.30;99.90;;;;;;1971757;71;20162;-69
2021/09/09 03:05:55;;;;;;;;;;;16.20;99.90;;;;;;1967354;71;20166;-68
2021/09/09 03:08:21;;;;;;;;;;;16.30;99.90;;;;;;1974487;72;20216;-68
2021/09/09 03:10:48;;;;;;;;;;;16.30;99.90;;;;;;1966586;71;20123;-69
2021/09/09 03:13:15;;;;;;;;;;;16.20;99.90;;;;;;1969708;71;20171;-68
2021/09/09 03:15:42;;;;;;;;;;;16.20;99.90;;;;;;1962744;71;20175;-69
2021/09/09 03:18:09;;;;;;;;;;;16.10;99.90;;;;;;1960998;71;20142;-69
2021/09/09 03:20:35;;;;;;;;;;;15.90;99.90;;;;;;1961340;73;20178;-69
2021/09/09 03:23:02;;;;;;;;;;;15.80;99.90;;;;;;1971688;71;20157;-69
2021/09/09 03:25:29;;;;;;;;;;;15.80;99.90;;;;;;1970116;71;20155;-69
2021/09/09 03:28:02;;;;;;;;;;;16.00;99.90;;;;;;1961304;73;20166;-68
2021/09/09 03:30:29;;;;;;;;;;;15.90;99.90;;;;;;1964830;72;20119;-69
2021/09/09 03:32:56;;;;;;;;;;;16.00;99.90;;;;;;1965812;71;20264;-70
2021/09/09 03:35:23;;;;;;;;;;;16.00;99.90;;;;;;1970461;71;20142;-69
2021/09/09 03:37:50;;;;;;;;;;;15.90;99.90;;;;;;1962319;71;20433;-69
2021/09/09 03:40:17;;;;;;;;;;;15.80;99.90;;;;;;1959781;71;20158;-70
2021/09/09 03:42:44;;;;;;;;;;;15.80;99.90;;;;;;1969171;71;20167;-70
2021/09/09 03:45:10;;;;;;;;;;;15.60;99.90;;;;;;1965399;71;20486;-70
2021/09/09 03:47:37;;;;;;;;;;;15.80;99.90;;;;;;1953864;71;20194;-70
2021/09/09 03:50:04;;;;;;;;;;;15.90;99.90;;;;;;1962278;71;20162;-70
2021/09/09 03:52:31;;;;;;;;;;;15.80;99.90;;;;;;1963657;73;20147;-70
2021/09/09 03:54:58;;;;;;;;;;;15.90;99.90;;;;;;1974197;71;20248;-70
2021/09/09 03:57:24;;;;;;;;;;;15.90;99.90;;;;;;1973148;71;20163;-71
2021/09/09 03:59:51;;;;;;;;;;;15.80;99.90;;;;;;1973578;71;20161;-70
2021/09/09 04:02:18;;;;;;;;;;;15.80;99.90;;;;;;1967749;72;20203;-70
2021/09/09 04:04:45;;;;;;;;;;;15.80;99.90;;;;;;1973966;71;20178;-70
2021/09/09 04:07:12;;;;;;;;;;;15.80;99.90;;;;;;1972950;71;20123;-69
2021/09/09 04:09:39;;;;;;;;;;;15.80;99.90;;;;;;1964121;71;20231;-70
2021/09/09 04:12:06;;;;;;;;;;;15.70;99.90;;;;;;1967926;71;20436;-70
2021/09/09 04:14:33;;;;;;;;;;;15.70;99.90;;;;;;1968824;71;20479;-70
2021/09/09 04:17:00;;;;;;;;;;;15.70;99.90;;;;;;1967368;71;20462;-70
2021/09/09 04:19:27;;;;;;;;;;;15.60;99.90;;;;;;1972498;71;20229;-70
2021/09/09 04:21:54;;;;;;;;;;;15.70;99.90;;;;;;1961280;73;20131;-70
2021/09/09 04:24:21;;;;;;;;;;;15.60;99.90;;;;;;1967343;71;20189;-69
2021/09/09 04:26:48;;;;;;;;;;;15.70;99.90;;;;;;1975025;71;20340;-70
2021/09/09 04:29:15;;;;;;;;;;;15.70;99.90;;;;;;1970032;71;20155;-70
2021/09/09 04:31:42;;;;;;;;;;;15.60;99.90;;;;;;1971374;73;20131;-70
2021/09/09 04:34:08;;;;;;;;;;;15.50;99.90;;;;;;1974734;71;20156;-69
2021/09/09 04:36:35;;;;;;;;;;;15.60;99.90;;;;;;1974353;72;20174;-70
2021/09/09 04:39:02;;;;;;;;;;;15.60;99.90;;;;;;1966952;71;20440;-70
2021/09/09 04:41:29;;;;;;;;;;;15.70;99.90;;;;;;1970359;71;20436;-70
2021/09/09 04:43:56;;;;;;;;;;;15.70;99.90;;;;;;1974452;71;20166;-70
2021/09/09 04:46:23;;;;;;;;;;;15.70;99.90;;;;;;1964624;71;20504;-69
2021/09/09 04:48:50;;;;;;;;;;;15.70;99.90;;;;;;1973910;71;20253;-70
2021/09/09 04:51:16;;;;;;;;;;;15.70;99.90;;;;;;1973500;71;20481;-70
2021/09/09 04:53:43;;;;;;;;;;;15.70;99.90;;;;;;1974480;73;20200;-69
2021/09/09 04:56:10;;;;;;;;;;;15.60;99.90;;;;;;1973885;71;20182;-71
2021/09/09 04:58:37;;;;;;;;;;;15.70;99.90;;;;;;1974588;73;20174;-70
2021/09/09 05:01:04;;;;;;;;;;;15.60;99.90;;;;;;1968047;71;20178;-70
2021/09/09 05:03:30;;;;;;;;;;;15.60;99.90;;;;;;1963302;71;20155;-71
2021/09/09 05:05:57;;;;;;;;;;;15.70;99.90;;;;;;1968400;71;20212;-70
2021/09/09 05:08:24;;;;;;;;;;;15.70;99.90;;;;;;1973930;71;20196;-70
2021/09/09 05:10:51;;;;;;;;;;;15.70;99.90;;;;;;1973611;71;20173;-70
2021/09/09 05:13:18;;;;;;;;;;;15.80;99.90;;;;;;1972133;71;20174;-70
2021/09/09 05:15:45;;;;;;;;;;;15.70;99.90;;;;;;1971505;71;20388;-70
2021/09/09 05:18:12;;;;;;;;;;;15.70;99.90;;;;;;1974871;73;20166;-70
2021/09/09 05:20:38;;;;;;;;;;;15.70;99.90;;;;;;1972101;71;20221;-70
2021/09/09 05:23:05;;;;;;;;;;;15.70;99.90;;;;;;1964391;73;20261;-70
2021/09/09 05:25:32;;;;;;;;;;;15.70;99.90;;;;;;1972573;71;20174;-70
2021/09/09 05:27:59;;;;;;;;;;;15.60;99.90;;;;;;1946403;71;20197;-70
2021/09/09 05:30:26;;;;;;;;;;;15.50;99.90;;;;;;1960161;71;20209;-69
2021/09/09 05:32:52;;;;;;;;;;;15.40;99.90;;;;;;1973475;71;20158;-70
2021/09/09 05:35:19;;;;;;;;;;;15.60;99.90;;;;;;1974432;71;20156;-70
2021/09/09 05:37:46;;;;;;;;;;;15.50;99.90;;;;;;1974636;73;20150;-70
2021/09/09 05:40:13;;;;;;;;;;;15.50;99.90;;;;;;1970724;71;20188;-70
2021/09/09 05:42:40;;;;;;;;;;;15.60;99.90;;;;;;1973277;71;20126;-70
2021/09/09 05:45:07;;;;;;;;;;;15.60;99.90;;;;;;1973218;71;20178;-70
2021/09/09 05:47:34;;;;;;;;;;;15.60;99.90;;;;;;1970572;71;20204;-70
2021/09/09 05:50:00;;;;;;;;;;;15.60;99.90;;;;;;1969251;71;20460;-70
2021/09/09 05:52:27;;;;;;;;;;;15.70;99.90;;;;;;1971696;71;20213;-70
2021/09/09 05:54:54;;;;;;;;;;;15.70;99.90;;;;;;1970729;71;20431;-70
2021/09/09 05:57:21;;;;;;;;;;;15.70;99.90;;;;;;1970656;71;20232;-71
2021/09/09 05:59:48;;;;;;;;;;;15.70;99.90;;;;;;1963638;71;20170;-71
2021/09/09 06:02:15;;;;;;;;;;;15.70;99.90;;;;;;1972206;71;20197;-72
2021/09/09 06:04:42;;;;;;;;;;;15.70;99.90;;;;;;1967890;71;20437;-72
2021/09/09 06:07:09;;;;;;;;;;;15.80;99.90;;;;;;1963642;71;20456;-70
2021/09/09 06:09:38;;;;;;;;;;;15.80;99.90;;;;;;1968086;71;20469;-70
2021/09/09 06:12:05;;;;;;;;;;;15.90;99.90;;;;;;1965057;71;20182;-70
2021/09/09 06:14:31;;;;;;;;;;;16.00;99.90;;;;;;1969093;71;20185;-70
2021/09/09 06:16:58;;;;;;;;;;;16.10;99.90;;;;;;1969105;71;20608;-70
2021/09/09 06:19:25;;;;;;;;;;;16.20;99.90;;;;;;1968897;71;20221;-69
2021/09/09 06:21:52;;;;;;;;;;;16.30;99.90;;;;;;1968146;71;20440;-70
2021/09/09 06:24:19;;;;;;;;;;;16.40;99.90;;;;;;1970343;71;20915;-69
2021/09/09 06:26:46;;;;;;;;;;;16.30;99.90;;;;;;1969941;71;20174;-69
2021/09/09 06:29:12;;;;;;;;;;;16.40;99.90;;;;;;1963043;71;20458;-70
2021/09/09 06:31:39;;;;;;;;;;;16.40;99.90;;;;;;1968290;71;20166;-71
2021/09/09 06:34:06;;;;;;;;;;;16.40;99.90;;;;;;1969622;71;20580;-68
2021/09/09 06:36:33;;;;;;;;;;;16.60;99.90;;;;;;1965498;71;20119;-70
2021/09/09 06:39:01;;;;;;;;;;;16.70;99.90;;;;;;1969738;71;20456;-69
2021/09/09 06:41:28;;;;;;;;;;;16.70;99.90;;;;;;1969827;71;20174;-69
2021/09/09 06:43:55;;;;;;;;;;;16.70;99.90;;;;;;1969625;71;20122;-70
2021/09/09 06:46:21;;;;;;;;;;;16.90;99.90;;;;;;1968056;71;20297;-67
2021/09/09 06:48:48;;;;;;;;;;;17.00;99.90;;;;;;1970742;71;20215;-68
2021/09/09 06:51:19;;;;;;;;;;;17.10;99.90;;;;;;1971086;71;20123;-68
2021/09/09 06:53:44;;;;;;;;;;;17.10;99.90;;;;;;1969931;71;20174;-67
2021/09/09 06:56:10;;;;;;;;;;;17.00;99.90;;;;;;1970188;71;20226;-67
2021/09/09 06:58:37;;;;;;;;;;;17.10;99.90;;;;;;1971381;71;20467;-68
2021/09/09 07:01:04;;;;;;;;;;;17.20;99.90;;;;;;1970037;71;20169;-68
2021/09/09 07:03:31;;;;;;;;;;;17.10;99.90;;;;;;1969739;71;20490;-67
2021/09/09 07:05:58;;;;;;;;;;;17.20;99.90;;;;;;1969931;71;20177;-68
2021/09/09 07:08:24;;;;;;;;;;;17.30;99.90;;;;;;1967201;71;20476;-68
2021/09/09 07:10:51;;;;;;;;;;;17.30;99.90;;;;;;1971322;71;20166;-68
2021/09/09 07:13:20;;;;;;;;;;;17.40;99.90;;;;;;1971089;71;20272;-75
2021/09/09 07:15:46;;;;;;;;;;;17.50;99.90;;;;;;1966904;71;20173;-67
2021/09/09 07:18:13;;;;;;;;;;;17.60;99.90;;;;;;1966112;71;20484;-67
2021/09/09 07:20:40;;;;;;;;;;;17.70;99.90;;;;;;1970447;71;20178;-67
2021/09/09 07:23:07;;;;;;;;;;;17.60;99.90;;;;;;1973242;71;20443;-67
2021/09/09 07:25:33;;;;;;;;;;;17.60;99.90;;;;;;1964770;73;20123;-67
2021/09/09 07:28:00;;;;;;;;;;;17.60;99.90;;;;;;1970403;71;20867;-67
2021/09/09 07:30:27;;;;;;;;;;;17.70;99.90;;;;;;1974724;73;20166;-67
2021/09/09 07:32:54;;;;;;;;;;;17.80;99.90;;;;;;1973366;71;20389;-67
2021/09/09 07:35:21;;;;;;;;;;;17.90;99.90;;;;;;1974517;73;20185;-66
2021/09/09 07:37:48;;;;;;;;;;;17.90;99.90;;;;;;1971417;71;20163;-67
2021/09/09 07:40:14;;;;;;;;;;;18.00;99.90;;;;;;1965715;71;20521;-67
2021/09/09 07:42:41;;;;;;;;;;;18.10;99.90;;;;;;1974188;71;20189;-67
2021/09/09 07:45:08;;;;;;;;;;;18.20;99.90;;;;;;1974892;71;20224;-67
2021/09/09 07:47:35;;;;;;;;;;;18.20;99.90;;;;;;1964519;71;20206;-67
2021/09/09 07:50:02;;;;;;;;;;;18.20;99.90;;;;;;1946507;71;20207;-67
2021/09/09 07:52:29;;;;;;;;;;;18.30;99.90;;;;;;1961971;73;20163;-67
2021/09/09 07:54:56;;;;;;;;;;;18.40;99.90;;;;;;1964816;72;20198;-66
2021/09/09 07:57:22;;;;;;;;;;;18.50;99.90;;;;;;1962862;71;20393;-66
2021/09/09 07:59:49;;;;;;;;;;;18.50;99.90;;;;;;1972908;71;20182;-67
2021/09/09 08:02:16;;;;;;;;;;;18.70;99.90;;;;;;1976042;71;20450;-67
2021/09/09 08:04:43;;;;;;;;;;;18.70;99.90;;;;;;1962070;71;20146;-67
2021/09/09 08:07:10;;;;;;;;;;;18.80;99.90;;;;;;1961244;71;20519;-67
2021/09/09 08:09:36;;;;;;;;;;;18.90;99.90;;;;;;1970028;71;20145;-67
2021/09/09 08:12:03;;;;;;;;;;;18.90;99.90;;;;;;1974375;71;20149;-67
2021/09/09 08:14:30;;;;;;;;;;;19.00;99.90;;;;;;1974644;71;20471;-67
2021/09/09 08:16:57;;;;;;;;;;;19.10;99.90;;;;;;1964300;71;20126;-67
2021/09/09 08:19:24;;;;;;;;;;;19.10;99.90;;;;;;1966171;71;20448;-67
2021/09/09 08:21:51;;;;;;;;;;;19.20;99.90;;;;;;1968100;71;20505;-67
2021/09/09 08:24:17;;;;;;;;;;;19.20;99.90;;;;;;1965682;71;20143;-67
2021/09/09 08:26:44;;;;;;;;;;;19.20;99.90;;;;;;1968268;71;20789;-67
2021/09/09 08:29:11;;;;;;;;;;;19.40;99.90;;;;;;1973557;72;20123;-67
2021/09/09 08:31:38;;;;;;;;;;;19.30;99.90;;;;;;1963946;71;20174;-67
2021/09/09 08:34:05;;;;;;;;;;;19.40;99.90;;;;;;1974052;73;20292;-67
2021/09/09 08:36:32;;;;;;;;;;;19.50;99.90;;;;;;1969303;71;20174;-67
2021/09/09 08:38:59;;;;;;;;;;;19.50;99.90;;;;;;1971911;71;20204;-68
2021/09/09 08:41:26;;;;;;;;;;;19.60;99.90;;;;;;1974223;73;20123;-68
2021/09/09 08:43:52;;;;;;;;;;;19.60;99.90;;;;;;1974970;71;20162;-67
2021/09/09 08:46:19;;;;;;;;;;;19.80;99.90;;;;;;1976103;71;20123;-67
2021/09/09 08:48:48;;;;;;;;;;;19.80;99.90;;;;;;1968723;71;20153;-69
2021/09/09 08:51:16;;;;;;;;;;;19.90;99.90;;;;;;1970986;72;20187;-69
2021/09/09 08:53:43;;;;;;;;;;;19.90;99.90;;;;;;1973850;73;20196;-70
2021/09/09 08:56:12;;;;;;;;;;;19.90;99.90;;;;;;1970311;71;20405;-70
2021/09/09 08:58:39;;;;;;;;;;;20.10;99.90;;;;;;1960752;71;20529;-70
2021/09/09 09:01:10;;;;;;;;;;;20.20;99.90;;;;;;1974451;72;20189;-69
2021/09/09 09:03:50;;;;;;;;;;;20.20;99.90;;;;;;1954033;72;20147;-70
2021/09/09 09:06:27;;;;;;;;;;;20.20;99.90;;;;;;1966366;72;20178;-70
2021/09/09 09:08:55;;;;;;;;;;;20.20;99.90;;;;;;1972242;73;20356;-70
2021/09/09 09:11:23;;;;;;;;;;;20.30;99.90;;;;;;1958500;73;20176;-70
2021/09/09 09:13:50;;;;;;;;;;;20.50;99.90;;;;;;1958592;73;20668;-70
2021/09/09 09:16:17;;;;;;;;;;;20.60;99.90;;;;;;1963056;73;20118;-70
2021/09/09 09:18:44;;;;;;;;;;;20.60;99.90;;;;;;1973858;73;20154;-70
2021/09/09 09:21:11;;;;;;;;;;;20.60;99.90;;;;;;1961401;73;20103;-70
2021/09/09 09:23:39;;;;;;;;;;;20.90;99.90;;;;;;1958772;73;20163;-70
2021/09/09 09:26:06;;;;;;;;;;;20.90;99.90;;;;;;1956631;73;20186;-70
2021/09/09 09:28:44;;;;;;;;;;;21.10;99.90;;;;;;1960841;73;20107;-70
2021/09/09 09:31:12;;;;;;;;;;;21.10;99.90;;;;;;1972565;71;20420;-70
2021/09/09 09:33:44;;;;;;;;;;;21.20;99.90;;;;;;1971863;71;20190;-69
2021/09/09 09:36:21;;;;;;;;;;;21.40;99.90;;;;;;1968741;73;20111;-70
2021/09/09 09:39:09;;;;;;;;;;;21.50;99.90;;;;;;1974751;73;20188;-81
2021/09/09 09:41:37;;;;;;;;;;;21.60;99.90;;;;;;1935802;73;20842;-67
2021/09/09 09:44:04;;;;;;;;;;;21.70;99.90;;;;;;1933032;73;20170;-67
2021/09/09 09:46:33;;;;;;;;;;;21.70;99.90;;;;;;1962909;72;20102;-67
2021/09/09 09:49:18;;;;;;;;;;;22.00;99.90;;;;;;1965332;72;20217;-68
2021/09/09 09:51:46;;;;;;;;;;;21.80;99.90;;;;;;1965075;72;20137;-67
2021/09/09 09:54:14;;;;;;;;;;;22.00;99.90;;;;;;1965284;72;20133;-68
2021/09/09 09:56:42;;;;;;;;;;;22.10;99.90;;;;;;1945326;72;20367;-68
2021/09/09 09:59:09;;;;;;;;;;;22.30;99.90;;;;;;1934870;73;20432;-67
2021/09/09 10:01:36;;;;;;;;;;;22.20;99.90;;;;;;1930798;74;20166;-67
2021/09/09 10:04:04;;;;;;;;;;;22.40;99.90;;;;;;1931189;74;20108;-68
2021/09/09 10:06:32;;;;;;;;;;;22.40;99.90;;;;;;1933256;73;20127;-68
2021/09/09 10:09:00;;;;;;;;;;;22.40;99.90;;;;;;1931100;73;20146;-68
2021/09/09 10:11:27;;;;;;;;;;;22.50;99.90;;;;;;1930948;74;20155;-67
2021/09/09 10:13:54;;;;;;;;;;;22.50;99.90;;;;;;1956960;73;20121;-67
2021/09/09 10:16:22;;;;;;;;;;;22.60;99.90;;;;;;1958814;72;20121;-67
2021/09/09 10:18:50;;;;;;;;;;;22.80;99.90;;;;;;1951447;73;20170;-67
2021/09/09 10:21:35;;;;;;;;;;;23.00;99.90;;;;;;1930958;73;20159;-66
2021/09/09 10:24:12;;;;;;;;;;;23.00;99.90;;;;;;1930710;74;20460;-67
2021/09/09 10:26:40;;;;;;;;;;;22.90;99.90;;;;;;1960213;73;20121;-67
2021/09/09 10:29:10;;;;;;;;;;;23.30;99.90;;;;;;1965055;73;20168;-67
2021/09/09 10:31:38;;;;;;;;;;;23.40;99.90;;;;;;1965066;72;20164;-67
2021/09/09 10:34:09;;;;;;;;;;;23.30;99.90;;;;;;1962639;73;20261;-67
2021/09/09 10:36:38;;;;;;;;;;;23.20;99.90;;;;;;1961553;73;20145;-66
2021/09/09 10:39:06;;;;;;;;;;;23.70;99.90;;;;;;1965077;73;20172;-66
2021/09/09 10:41:33;;;;;;;;;;;23.60;99.90;;;;;;1965156;72;20176;-67
2021/09/09 10:44:01;;;;;;;;;;;23.60;99.90;;;;;;1948759;73;20113;-68
2021/09/09 10:46:38;;;;;;;;;;;23.60;99.90;;;;;;1964998;73;20438;-67
2021/09/09 10:49:18;;;;;;;;;;;24.00;99.90;;;;;;1965170;72;20454;-67
2021/09/09 10:52:05;;;;;;;;;;;23.90;99.90;;;;;;1960313;71;20139;-67
2021/09/09 10:54:34;;;;;;;;;;;24.10;99.90;;;;;;1966709;71;20192;-67
2021/09/09 10:57:14;;;;;;;;;;;24.20;99.90;;;;;;1938329;73;20106;-68
2021/09/09 10:59:48;;;;;;;;;;;24.40;99.90;;;;;;1966542;70;20117;-68
2021/09/09 11:02:15;;;;;;;;;;;24.50;99.90;;;;;;1937955;72;20157;-67
2021/09/09 11:04:44;;;;;;;;;;;24.50;99.90;;;;;;1944876;73;20105;-67
2021/09/09 11:07:21;;;;;;;;;;;24.50;99.90;;;;;;1964908;72;20225;-67
2021/09/09 11:09:50;;;;;;;;;;;24.70;99.90;;;;;;1942663;73;20127;-68
2021/09/09 11:12:17;;;;;;;;;;;24.60;99.90;;;;;;1937131;73;20164;-67
2021/09/09 11:14:43;;;;;;;;;;;24.60;99.90;;;;;;1979491;71;20166;-67
2021/09/09 11:17:12;;;;;;;;;;;24.70;99.90;;;;;;1951774;73;20184;-68
2021/09/09 11:19:39;;;;;;;;;;;24.80;99.90;;;;;;1930056;74;20118;-68
2021/09/09 11:22:05;;;;;;;;;;;24.70;99.90;;;;;;1934723;73;20144;-67
2021/09/09 11:24:35;;;;;;;;;;;24.80;99.90;;;;;;1949518;73;20592;-68
2021/09/09 11:27:08;;;;;;;;;;;24.80;99.90;;;;;;1931512;72;20521;-67
2021/09/09 11:29:35;;;;;;;;;;;25.10;99.90;;;;;;1931201;73;20252;-67
2021/09/09 11:32:02;;;;;;;;;;;25.30;99.90;;;;;;1939742;73;20149;-67
2021/09/09 11:34:30;;;;;;;;;;;25.40;99.90;;;;;;1950137;72;20123;-67
2021/09/09 11:37:01;;;;;;;;;;;25.50;99.90;;;;;;1932062;73;20131;-67
2021/09/09 11:39:35;;;;;;;;;;;25.40;99.90;;;;;;1937558;73;20170;-68
2021/09/09 11:41:59;;;;;;;;;;;25.40;99.90;;;;;;1936517;73;20172;-67
2021/09/09 11:44:27;;;;;;;;;;;25.60;99.90;;;;;;1940615;73;20123;-67
2021/09/09 11:46:54;;;;;;;;;;;25.50;99.90;;;;;;1930801;74;20412;-67
2021/09/09 11:49:22;;;;;;;;;;;25.70;99.90;;;;;;1937246;73;20189;-67
2021/09/09 11:51:56;;;;;;;;;;;25.60;99.90;;;;;;1936020;73;21002;-67
2021/09/09 11:54:24;;;;;;;;;;;25.50;99.90;;;;;;1939998;73;20289;-67
2021/09/09 11:56:52;;;;;;;;;;;25.50;99.90;;;;;;1937109;73;20233;-67
2021/09/09 11:59:20;;;;;;;;;;;25.90;99.90;;;;;;1947677;73;20150;-68
2021/09/09 12:01:50;;;;;;;;;;;25.80;99.60;;;;;;1945756;73;20172;-67
2021/09/09 12:04:19;;;;;;;;;;;26.10;99.40;;;;;;1941771;73;20264;-68
2021/09/09 12:06:47;;;;;;;;;;;26.00;99.90;;;;;;1963630;73;20495;-68
2021/09/09 12:09:27;;;;;;;;;;;26.40;99.00;;;;;;1949275;73;20430;-68
2021/09/09 12:12:01;;;;;;;;;;;26.30;99.90;;;;;;1930316;73;20104;-67
2021/09/09 12:14:28;;;;;;;;;;;26.10;99.90;;;;;;1931398;73;20201;-68
2021/09/09 12:17:07;;;;;;;;;;;26.40;99.60;;;;;;1939838;73;20378;-68
2021/09/09 12:19:50;;;;;;;;;;;26.30;99.40;;;;;;1953230;72;20194;-67
2021/09/09 12:22:17;;;;;;;;;;;26.50;98.60;;;;;;1952635;73;20160;-67
2021/09/09 12:24:44;;;;;;;;;;;26.60;99.10;;;;;;1979545;71;20170;-67
2021/09/09 12:27:12;;;;;;;;;;;26.70;99.20;;;;;;2003473;71;20102;-68
2021/09/09 12:29:42;;;;;;;;;;;26.60;98.40;;;;;;1954122;72;20123;-69
2021/09/09 12:32:24;;;;;;;;;;;27.00;97.90;;;;;;1937483;73;20145;-69
2021/09/09 12:34:51;;;;;;;;;;;27.00;98.00;;;;;;1953206;72;20288;-69
2021/09/09 12:37:18;;;;;;;;;;;27.00;99.30;;;;;;1942926;73;20186;-69
2021/09/09 12:39:46;;;;;;;;;;;27.10;97.90;;;;;;1946150;73;20153;-69
2021/09/09 12:42:13;;;;;;;;;;;27.30;96.60;;;;;;1932524;73;20464;-68
2021/09/09 12:44:40;;;;;;;;;;;27.30;95.90;;;;;;1956375;73;20460;-68
2021/09/09 12:47:17;;;;;;;;;;;27.30;96.90;;;;;;1932427;72;20154;-68
2021/09/09 12:49:43;;;;;;;;;;;27.50;97.00;;;;;;1936452;71;20200;-71
2021/09/09 12:52:11;;;;;;;;;;;27.30;96.10;;;;;;1940408;73;20429;-70
2021/09/09 12:54:40;;;;;;;;;;;27.50;95.20;;;;;;1940608;73;20203;-70
2021/09/09 12:57:06;;;;;;;;;;;27.50;96.20;;;;;;1931163;73;20185;-71
2021/09/09 12:59:33;;;;;;;;;;;27.70;95.60;;;;;;1938375;73;20158;-71
2021/09/09 13:02:00;;;;;;;;;;;27.70;95.30;;;;;;1957336;72;20257;-70
2021/09/09 13:04:30;;;;;;;;;;;27.60;95.50;;;;;;1935371;73;20147;-70
2021/09/09 13:06:57;;;;;;;;;;;27.60;95.40;;;;;;1930716;74;20225;-70
2021/09/09 13:09:25;;;;;;;;;;;27.60;95.40;;;;;;1942417;72;20359;-70
2021/09/09 13:11:53;;;;;;;;;;;27.50;96.40;;;;;;1950372;73;20248;-70
2021/09/09 13:14:20;;;;;;;;;;;27.50;96.50;;;;;;1958714;72;20569;-70
2021/09/09 13:16:47;;;;;;;;;;;27.60;97.50;;;;;;1949980;73;20236;-70
2021/09/09 13:19:14;;;;;;;;;;;27.50;94.80;;;;;;1934526;73;20204;-70
2021/09/09 13:21:41;;;;;;;;;;;27.60;95.80;;;;;;1960700;73;20168;-70
2021/09/09 13:24:08;;;;;;;;;;;27.50;97.00;;;;;;1950431;72;20354;-69
2021/09/09 13:26:35;;;;;;;;;;;27.50;96.20;;;;;;1930762;73;20175;-69
2021/09/09 13:29:02;;;;;;;;;;;27.60;95.00;;;;;;1951527;73;20127;-70
2021/09/09 13:31:29;;;;;;;;;;;27.70;95.60;;;;;;1930887;74;20197;-70
2021/09/09 13:34:00;;;;;;;;;;;27.90;93.40;;;;;;1934143;73;20170;-70
2021/09/09 13:36:28;;;;;;;;;;;27.80;94.10;;;;;;1954146;73;20461;-70
2021/09/09 13:38:55;;;;;;;;;;;27.70;93.30;;;;;;1934230;73;20182;-70
2021/09/09 13:41:22;;;;;;;;;;;27.90;94.10;;;;;;1940029;73;20194;-70
2021/09/09 13:43:49;;;;;;;;;;;27.70;95.00;;;;;;1930990;74;20174;-69
2021/09/09 13:46:16;;;;;;;;;;;27.80;94.20;;;;;;1936181;73;20186;-70
2021/09/09 13:48:43;;;;;;;;;;;27.80;94.40;;;;;;1937273;73;20113;-69
2021/09/09 13:51:09;;;;;;;;;;;27.80;93.80;;;;;;1961321;72;20153;-69
2021/09/09 13:53:36;;;;;;;;;;;27.80;93.90;;;;;;1957015;73;20206;-70
2021/09/09 13:56:03;;;;;;;;;;;27.80;94.70;;;;;;1931398;73;20155;-69
2021/09/09 13:58:30;;;;;;;;;;;27.90;94.30;;;;;;1932415;73;20285;-70
2021/09/09 14:00:57;;;;;;;;;;;27.90;94.00;;;;;;1933300;73;20218;-69
2021/09/09 14:03:23;;;;;;;;;;;27.90;95.00;;;;;;1935969;73;20170;-70
2021/09/09 14:05:50;;;;;;;;;;;27.90;93.90;;;;;;1930854;73;20232;-69
2021/09/09 14:08:17;;;;;;;;;;;27.80;94.60;;;;;;1931027;73;20216;-69
2021/09/09 14:10:47;;;;;;;;;;;27.80;95.80;;;;;;1936082;73;20211;-70
2021/09/09 14:13:12;;;;;;;;;;;27.80;95.20;;;;;;1937005;73;20158;-70
2021/09/09 14:15:39;;;;;;;;;;;27.70;96.40;;;;;;1938995;73;20381;-70
2021/09/09 14:18:06;;;;;;;;;;;27.80;95.60;;;;;;1943552;73;20160;-70
2021/09/09 14:20:33;;;;;;;;;;;27.90;93.70;;;;;;1943206;72;20108;-70